Time;durP1;ratioP1;P1;durP2;ratioP2;P2;SDS_P1;SDS_P2;PMS_P1;PMS_P2;Temp;Humidity;BMP_temperature;BMP_pressure;BME280_temperature;BME280_humidity;BME280_pressure;Samples;Min_cycle;Max_cycle;Signal;HPM_P1;HPM_P2
2022/10/03 00:00:59;;;;;;;16.23;7.68;;;333.50;2329.60;;;;;;5052831;28;20044;-77
2022/10/03 00:03:45;;;;;;;11.68;7.20;;;333.50;2329.60;;;;;;5054098;28;20017;-77
2022/10/03 00:06:51;;;;;;;17.95;7.45;;;333.40;2329.60;;;;;;5052776;28;20029;-77
2022/10/03 00:09:31;;;;;;;12.23;7.75;;;333.50;2329.60;;;;;;5031900;28;20393;-76
2022/10/03 00:12:15;;;;;;;17.23;8.15;;;333.50;2329.60;;;;;;5052819;28;20450;-77
2022/10/03 00:15:02;;;;;;;13.63;7.40;;;333.40;2329.60;;;;;;5052430;28;20047;-76
2022/10/03 00:18:03;;;;;;;15.07;7.32;;;333.50;2329.60;;;;;;5052404;28;20056;-77
2022/10/03 00:20:48;;;;;;;11.77;6.88;;;333.10;2329.60;;;;;;5045922;28;20055;-76
2022/10/03 00:23:45;;;;;;;9.88;6.68;;;333.20;2329.60;;;;;;5053863;28;20374;-78
2022/10/03 00:26:36;;;;;;;17.30;7.90;;;333.30;2329.60;;;;;;5054030;28;20029;-77
2022/10/03 00:29:04;;;;;;;14.02;6.50;;;333.10;2329.60;;;;;;5051259;28;20112;-77
2022/10/03 00:31:58;;;;;;;9.65;6.85;;;332.90;2329.60;;;;;;5052015;28;20128;-77
2022/10/03 00:34:49;;;;;;;11.82;6.07;;;333.00;2329.60;;;;;;5020526;28;20040;-76
2022/10/03 00:37:23;;;;;;;11.55;5.95;;;333.00;2329.60;;;;;;5052344;28;20025;-77
2022/10/03 00:40:27;;;;;;;7.65;5.38;;;333.20;2329.60;;;;;;5052049;28;20029;-78
2022/10/03 00:43:18;;;;;;;11.80;5.90;;;333.20;2329.60;;;;;;5051879;28;20102;-78
2022/10/03 00:46:21;;;;;;;12.95;6.03;;;333.10;2329.60;;;;;;5053683;28;20029;-78
2022/10/03 00:49:05;;;;;;;8.60;5.65;;;333.00;2329.60;;;;;;5051933;28;20481;-78
2022/10/03 00:51:34;;;;;;;11.63;7.70;;;333.00;2329.60;;;;;;5053526;28;20430;-78
2022/10/03 00:54:12;;;;;;;12.05;8.75;;;332.80;2329.60;;;;;;5053225;28;20060;-78
2022/10/03 00:56:56;;;;;;;13.65;9.02;;;332.80;2329.60;;;;;;5056844;28;20428;-77
2022/10/03 00:59:38;;;;;;;15.98;9.00;;;332.90;2329.60;;;;;;5058000;28;20041;-78
2022/10/03 01:02:16;;;;;;;;;;;333.00;2329.60;;;;;;5059176;28;20029;-78
2022/10/03 01:05:03;;;;;;;12.40;8.57;;;332.90;2329.60;;;;;;5057374;28;20293;-77
2022/10/03 01:07:45;;;;;;;12.13;8.20;;;333.00;2329.60;;;;;;5060349;28;20053;-77
2022/10/03 01:10:21;;;;;;;16.75;9.20;;;333.00;2329.60;;;;;;5058327;28;20036;-78
2022/10/03 01:13:02;;;;;;;21.42;13.07;;;333.10;2329.60;;;;;;5058617;28;20563;-78
2022/10/03 01:15:50;;;;;;;33.72;15.98;;;333.10;2329.60;;;;;;5058704;28;20233;-78
2022/10/03 01:18:20;;;;;;;18.10;10.30;;;333.10;2329.60;;;;;;5057876;28;20508;-78
2022/10/03 01:20:49;;;;;;;9.68;6.75;;;333.10;2329.60;;;;;;5060141;28;20036;-78
2022/10/03 01:23:40;;;;;;;11.32;6.97;;;332.80;2329.60;;;;;;5058599;28;20056;-79
2022/10/03 01:26:14;;;;;;;9.30;5.93;;;332.90;2329.60;;;;;;5059235;28;20036;-78
2022/10/03 01:31:45;;;;;;;23.80;10.88;;;333.20;2329.60;;;;;;5060564;28;20036;-78
2022/10/03 01:34:17;;;;;;;30.90;13.70;;;333.30;2329.60;;;;;;5058650;28;20092;-79
2022/10/03 01:37:10;;;;;;;15.15;9.27;;;333.20;2329.60;;;;;;5058461;28;20029;-79
2022/10/03 01:39:52;;;;;;;;;;;333.20;2329.60;;;;;;5057411;28;20029;-78
2022/10/03 01:42:52;;;;;;;20.98;11.18;;;333.30;2329.60;;;;;;5038455;28;19988;-78
2022/10/03 01:45:48;;;;;;;27.55;14.43;;;333.20;2329.60;;;;;;5036814;28;20557;-78
2022/10/03 01:48:19;;;;;;;16.75;9.88;;;333.40;2329.60;;;;;;5039773;28;20462;-79
2022/10/03 01:50:59;;;;;;;13.02;9.25;;;333.40;2329.60;;;;;;5038258;28;20025;-79
2022/10/03 01:53:48;;;;;;;16.42;9.13;;;333.50;2329.60;;;;;;5039681;28;20479;-78
2022/10/03 01:56:36;;;;;;;14.93;9.00;;;333.50;2329.60;;;;;;5038386;28;20025;-78
2022/10/03 01:59:12;;;;;;;15.85;9.10;;;333.30;2329.60;;;;;;5037843;28;20025;-78
2022/10/03 02:02:07;;;;;;;18.13;9.85;;;333.30;2329.60;;;;;;5038389;28;20033;-78
2022/10/03 02:04:33;;;;;;;13.00;8.48;;;333.40;2329.60;;;;;;5037952;28;20033;-79
2022/10/03 02:07:19;;;;;;;13.55;8.48;;;333.40;2329.60;;;;;;5035922;28;20482;-78
2022/10/03 02:10:18;;;;;;;13.32;7.85;;;333.30;2329.60;;;;;;5036089;28;20494;-78
2022/10/03 02:13:04;;;;;;;11.18;7.43;;;333.00;2329.60;;;;;;5023937;28;20483;-79
2022/10/03 02:15:33;;;;;;;13.07;7.53;;;332.80;2329.60;;;;;;5035049;28;20029;-78
2022/10/03 02:18:26;;;;;;;11.57;6.80;;;308.00;2304.00;;;;;;5034592;28;20049;-77
2022/10/03 02:20:56;;;;;;;11.20;6.82;;;332.80;2329.60;;;;;;5036043;28;20033;-78
2022/10/03 02:23:40;;;;;;;10.98;6.22;;;307.90;2304.00;;;;;;5034797;28;20475;-78
2022/10/03 02:26:16;;;;;;;13.90;7.43;;;308.10;2304.00;;;;;;5034872;28;20026;-79
2022/10/03 02:29:18;;;;;;;11.52;6.90;;;308.00;2304.00;;;;;;5034468;28;20049;-78
2022/10/03 02:32:20;;;;;;;15.90;6.83;;;332.80;2329.60;;;;;;5034824;28;20398;-78
2022/10/03 02:35:10;;;;;;;13.73;6.80;;;332.80;2329.60;;;;;;5035460;28;20259;-79
2022/10/03 02:37:53;;;;;;;10.80;6.22;;;308.10;2304.00;;;;;;5036038;28;20028;-78
2022/10/03 02:40:47;;;;;;;15.80;7.50;;;332.80;2329.60;;;;;;5034504;28;20053;-78
2022/10/03 02:43:57;;;;;;;13.43;7.45;;;332.80;2329.60;;;;;;5034545;28;20029;-79
2022/10/03 02:47:12;;;;;;;11.07;7.40;;;308.00;2304.00;;;;;;5034435;28;20029;-79
2022/10/03 02:50:01;;;;;;;12.43;6.32;;;307.70;2304.00;;;;;;5035139;28;20372;-78
2022/10/03 02:52:46;;;;;;;11.32;6.97;;;;;;;;;;5035687;28;20111;-78
2022/10/03 02:55:24;;;;;;;12.45;7.00;;;307.60;2304.00;;;;;;5033990;28;20022;-79
2022/10/03 02:58:11;;;;;;;15.07;7.68;;;307.70;2304.00;;;;;;5042751;28;20083;-78
2022/10/03 03:00:52;;;;;;;15.07;8.38;;;307.70;2304.00;;;;;;5035145;28;20044;-78
2022/10/03 03:03:52;;;;;;;15.25;8.90;;;307.50;2304.00;;;;;;5048624;28;20033;-77
2022/10/03 03:06:24;;;;;;;16.23;9.02;;;307.40;2304.00;;;;;;5035566;28;20048;-79
2022/10/03 03:09:08;;;;;;;14.60;9.25;;;307.40;2304.00;;;;;;5035018;28;20476;-79
2022/10/03 03:12:00;;;;;;;15.02;8.48;;;307.50;2304.00;;;;;;5035069;28;20033;-77
2022/10/03 03:15:07;;;;;;;10.98;7.72;;;307.50;2304.00;;;;;;5050649;28;20025;-78
2022/10/03 03:18:18;;;;;;;14.25;8.02;;;307.70;2304.00;;;;;;5049741;28;20045;-78
2022/10/03 03:21:04;;;;;;;14.80;8.45;;;308.00;2304.00;;;;;;5018053;28;20044;-78
2022/10/03 03:23:55;;;;;;;13.73;7.55;;;308.00;2304.00;;;;;;5050095;28;20026;-78
2022/10/03 03:26:49;;;;;;;10.82;7.45;;;308.10;2304.00;;;;;;5035299;28;20026;-79
2022/10/03 03:29:33;;;;;;;13.32;7.65;;;308.10;2304.00;;;;;;5035287;28;20037;-78
2022/10/03 03:32:30;;;;;;;12.80;8.15;;;308.00;2304.00;;;;;;5050116;28;20034;-79
2022/10/03 03:35:34;;;;;;;14.02;8.93;;;307.70;2304.00;;;;;;5032167;28;20459;-79
2022/10/03 03:38:18;;;;;;;17.33;8.05;;;307.90;2304.00;;;;;;5033233;28;20021;-79
2022/10/03 03:41:05;;;;;;;18.63;8.02;;;308.10;2304.00;;;;;;5033467;28;20026;-79
2022/10/03 03:44:05;;;;;;;13.18;7.80;;;308.10;2304.00;;;;;;5034286;28;20033;-79
2022/10/03 03:46:59;;;;;;;10.90;6.75;;;307.70;2304.00;;;;;;5034570;28;20374;-79
2022/10/03 03:49:44;;;;;;;13.48;7.28;;;307.90;2304.00;;;;;;5034437;28;20065;-78
2022/10/03 03:52:23;;;;;;;12.82;7.28;;;307.90;2304.00;;;;;;5032968;28;20064;-78
2022/10/03 03:55:22;;;;;;;10.95;7.43;;;307.90;2304.00;;;;;;5034157;28;20507;-79
2022/10/03 03:57:56;;;;;;;12.88;7.80;;;307.90;2304.00;;;;;;5032760;28;20032;-78
2022/10/03 04:00:55;;;;;;;16.33;7.18;;;307.60;2304.00;;;;;;5033073;28;20068;-79
2022/10/03 04:04:01;;;;;;;13.93;7.15;;;307.90;2304.00;;;;;;5033000;28;20109;-78
2022/10/03 04:07:06;;;;;;;10.25;7.05;;;307.90;2304.00;;;;;;5033623;28;20113;-79
2022/10/03 04:09:47;;;;;;;13.95;7.22;;;307.80;2304.00;;;;;;5010350;28;20076;-77
2022/10/03 04:12:19;;;;;;;13.70;7.78;;;308.10;2304.00;;;;;;5032587;28;20081;-78
2022/10/03 04:15:25;;;;;;;14.27;8.13;;;308.10;2304.00;;;;;;5033796;28;20088;-78
2022/10/03 04:21:59;;;;;;;13.38;7.03;;;308.10;2304.00;;;;;;5033795;28;20080;-79
2022/10/03 04:25:00;;;;;;;17.30;7.55;;;332.90;2329.60;;;;;;4995238;28;20459;-79
2022/10/03 04:27:50;;;;;;;11.73;7.13;;;332.90;2329.60;;;;;;5019453;28;20425;-78
2022/10/03 04:30:34;;;;;;;15.65;8.00;;;332.90;2329.60;;;;;;5031926;28;20029;-79
2022/10/03 04:33:06;;;;;;;15.20;6.97;;;332.90;2329.60;;;;;;5032391;28;20040;-79
2022/10/03 04:36:09;;;;;;;11.38;6.60;;;333.00;2329.60;;;;;;5034165;28;20025;-78
2022/10/03 04:38:55;;;;;;;15.25;6.93;;;332.90;2329.60;;;;;;5032444;28;20025;-78
2022/10/03 04:41:39;;;;;;;15.48;7.63;;;332.80;2329.60;;;;;;5033494;28;20478;-79
2022/10/03 04:44:39;;;;;;;14.18;7.45;;;307.90;2304.00;;;;;;5033427;28;20084;-79
2022/10/03 04:47:39;;;;;;;14.18;7.47;;;307.90;2304.00;;;;;;5033386;28;20029;-79
2022/10/03 04:50:11;;;;;;;10.48;6.55;;;308.10;2304.00;;;;;;5033245;28;20034;-79
2022/10/03 04:52:56;;;;;;;29.17;11.35;;;332.90;2329.60;;;;;;5042429;28;20461;-79
2022/10/03 04:55:47;;;;;;;29.60;11.65;;;333.00;2329.60;;;;;;5051802;28;20466;-79
2022/10/03 04:58:30;;;;;;;13.80;7.72;;;332.90;2329.60;;;;;;5050147;28;20476;-79
2022/10/03 05:00:56;;;;;;;29.67;11.65;;;332.90;2329.60;;;;;;5051731;28;20059;-78
2022/10/03 05:03:40;;;;;;;37.75;16.13;;;333.00;2329.60;;;;;;5052443;28;20104;-78
2022/10/03 05:06:30;;;;;;;20.65;10.98;;;332.90;2329.60;;;;;;5052169;28;20032;-78
2022/10/03 05:09:37;;;;;;;18.75;10.82;;;333.00;2329.60;;;;;;5053031;28;20029;-77
2022/10/03 05:12:11;;;;;;;17.38;9.75;;;333.10;2329.60;;;;;;5053330;28;20032;-77
2022/10/03 05:14:43;;;;;;;19.05;9.10;;;333.00;2329.60;;;;;;5052971;28;20029;-79
2022/10/03 05:17:26;;;;;;;14.77;7.38;;;333.10;2329.60;;;;;;5051624;28;20045;-79
2022/10/03 05:20:18;;;;;;;9.52;5.20;;;333.20;2329.60;;;;;;5052077;28;20068;-79
2022/10/03 05:23:19;;;;;;;7.20;5.03;;;333.20;2329.60;;;;;;5051557;28;20428;-79
2022/10/03 05:26:05;;;;;;;11.43;6.30;;;333.40;2329.60;;;;;;5053471;28;20412;-79
2022/10/03 05:28:50;;;;;;;12.95;5.88;;;333.30;2329.60;;;;;;5052640;28;20130;-79
2022/10/03 05:31:43;;;;;;;16.45;6.60;;;333.30;2329.60;;;;;;5050720;28;20036;-79
2022/10/03 05:34:17;;;;;;;;;;;333.30;2329.60;;;;;;5051529;28;20033;-79
2022/10/03 05:36:52;;;;;;;14.07;8.43;;;333.40;2329.60;;;;;;5051251;28;20325;-78
2022/10/03 05:39:54;;;;;;;15.05;8.75;;;333.40;2329.60;;;;;;5051899;28;20033;-78
2022/10/03 05:42:32;;;;;;;73.18;29.38;;;333.50;2329.60;;;;;;5053646;28;20116;-79
2022/10/03 05:45:03;;;;;;;41.25;17.80;;;333.50;2329.60;;;;;;5055522;28;20025;-79
2022/10/03 05:47:48;;;;;;;31.25;11.90;;;333.60;2329.60;;;;;;5055578;28;20031;-79
2022/10/03 05:50:32;;;;;;;41.72;22.05;;;333.60;2329.60;;;;;;5056097;28;20466;-78
2022/10/03 05:53:16;;;;;;;88.57;56.80;;;333.60;2329.60;;;;;;5055373;28;20025;-79
2022/10/03 05:56:04;;;;;;;40.42;21.77;;;333.60;2329.60;;;;;;5055405;28;20082;-78
2022/10/03 05:58:42;;;;;;;21.27;12.05;;;333.50;2329.60;;;;;;5056496;28;20078;-79
2022/10/03 06:01:39;;;;;;;23.65;14.95;;;333.70;2329.60;;;;;;5053791;28;20131;-79
2022/10/03 06:04:29;;;;;;;23.27;13.25;;;333.70;2329.60;;;;;;5054040;28;20057;-78
2022/10/03 06:07:24;;;;;;;23.90;16.67;;;333.60;2329.60;;;;;;5054879;28;20029;-80
2022/10/03 06:10:01;;;;;;;28.02;14.23;;;333.70;2329.60;;;;;;5055011;28;20119;-78
2022/10/03 06:12:45;;;;;;;20.80;13.07;;;333.70;2329.60;;;;;;5054898;28;20029;-78
2022/10/03 06:15:53;;;;;;;18.92;10.82;;;333.70;2329.60;;;;;;5055104;28;20466;-78
2022/10/03 06:18:38;;;;;;;25.63;18.15;;;358.50;2329.60;;;;;;5054272;28;20045;-78
2022/10/03 06:21:32;;;;;;;31.20;17.55;;;358.50;2329.60;;;;;;5055024;28;20056;-79
2022/10/03 06:24:19;;;;;;;26.30;15.13;;;358.70;2329.60;;;;;;5054771;28;20029;-79
2022/10/03 06:27:25;;;;;;;28.50;14.80;;;358.60;2329.60;;;;;;5055794;28;20029;-79
2022/10/03 06:29:51;;;;;;;15.18;9.20;;;358.80;2329.60;;;;;;5053994;28;20390;-78
2022/10/03 06:32:45;;;;;;;15.45;9.50;;;358.80;2329.60;;;;;;5055861;28;20029;-78
2022/10/03 06:35:43;;;;;;;12.85;8.07;;;358.80;2329.60;;;;;;5053647;28;20024;-78
2022/10/03 06:38:21;;;;;;;13.80;8.70;;;358.90;2329.60;;;;;;5055811;28;20123;-78
2022/10/03 06:40:58;;;;;;;12.15;6.55;;;358.90;2329.60;;;;;;5054237;28;20028;-80
2022/10/03 06:43:24;;;;;;;14.27;8.48;;;358.90;2329.60;;;;;;5054556;28;20052;-79
2022/10/03 06:46:06;;;;;;;20.17;9.93;;;358.90;2329.60;;;;;;5055376;28;20493;-78
2022/10/03 06:49:00;;;;;;;15.10;7.95;;;358.80;2329.60;;;;;;5054407;28;20025;-79
2022/10/03 06:51:44;;;;;;;12.45;7.80;;;359.00;2329.60;;;;;;5055444;28;20478;-78
2022/10/03 06:54:46;;;;;;;11.15;7.07;;;359.00;2329.60;;;;;;5054593;28;20130;-79
2022/10/03 06:57:40;;;;;;;18.80;9.25;;;359.10;2329.60;;;;;;5055465;28;20029;-80
2022/10/03 07:00:20;;;;;;;27.42;11.77;;;359.30;2329.60;;;;;;5053421;28;20041;-79
2022/10/03 07:03:20;;;;;;;18.73;11.30;;;359.30;2329.60;;;;;;5054036;28;20029;-79
2022/10/03 07:06:23;;;;;;;15.82;10.75;;;359.30;2329.60;;;;;;5053965;28;20059;-79
2022/10/03 07:09:27;;;;;;;22.05;11.73;;;384.00;2329.60;;;;;;5053775;28;20021;-78
2022/10/03 07:12:25;;;;;;;16.08;8.80;;;384.10;2329.60;;;;;;5053780;28;20033;-79
2022/10/03 07:15:00;;;;;;;13.70;7.00;;;;;;;;;;5009746;28;20055;-79
2022/10/03 07:17:33;;;;;;;8.75;5.65;;;384.00;2329.60;;;;;;5053482;28;20482;-79
2022/10/03 07:20:06;;;;;;;10.18;5.15;;;384.00;2329.60;;;;;;5053674;28;20040;-79
2022/10/03 07:22:46;;;;;;;9.18;4.90;;;384.10;2329.60;;;;;;5053429;28;20033;-78
2022/10/03 07:25:24;;;;;;;7.50;4.22;;;384.10;2329.60;;;;;;5053707;28;20025;-78
2022/10/03 07:28:04;;;;;;;9.73;4.75;;;384.20;2329.60;;;;;;5053236;28;20040;-78
2022/10/03 07:31:07;;;;;;;9.20;5.60;;;384.30;2329.60;;;;;;5053336;28;20036;-78
2022/10/03 07:33:40;;;;;;;8.52;3.70;;;384.50;2329.60;;;;;;5003519;28;20037;-79
2022/10/03 07:39:00;;;;;;;5.07;3.83;;;;;;;;;;5054354;28;20146;-79
2022/10/03 07:42:07;;;;;;;6.72;4.38;;;384.60;2329.60;;;;;;5053011;28;20170;-78
2022/10/03 07:44:54;;;;;;;6.63;4.75;;;384.50;2329.60;;;;;;5026242;28;20064;-77
2022/10/03 07:47:32;;;;;;;5.70;3.78;;;384.60;2329.60;;;;;;5054430;28;20462;-78
2022/10/03 07:50:21;;;;;;;4.72;3.63;;;384.60;2329.60;;;;;;5052742;28;20123;-79
2022/10/03 07:52:48;;;;;;;5.38;4.20;;;384.60;2329.60;;;;;;5054517;28;20029;-80
2022/10/03 07:55:35;;;;;;;4.90;3.53;;;384.60;2329.60;;;;;;5053946;28;20021;-76
2022/10/03 07:58:11;;;;;;;5.75;4.15;;;384.20;2329.60;;;;;;5053136;28;20032;-79
2022/10/03 08:00:40;;;;;;;5.43;3.70;;;384.60;2329.60;;;;;;5052949;28;20035;-80
2022/10/03 08:04:01;;;;;;;4.50;3.40;;;384.60;2329.60;;;;;;5052781;28;20033;-79
2022/10/03 08:06:36;;;;;;;5.65;3.88;;;384.70;2329.60;;;;;;5008059;28;20127;-79
2022/10/03 08:09:16;;;;;;;6.85;3.70;;;384.80;2329.60;;;;;;5052816;28;20025;-79
2022/10/03 08:11:57;;;;;;;5.70;4.22;;;384.90;2329.60;;;;;;5053814;28;20029;-82
2022/10/03 08:15:03;;;;;;;6.38;4.07;;;409.60;2355.20;;;;;;5052730;28;20033;-79
2022/10/03 08:17:29;;;;;;;7.63;5.28;;;409.70;2355.20;;;;;;5052064;28;20053;-78
2022/10/03 08:20:13;;;;;;;7.22;4.90;;;409.90;2355.20;;;;;;5052594;28;20051;-78
2022/10/03 08:23:14;;;;;;;6.80;5.10;;;410.00;2355.20;;;;;;5053911;28;20060;-77
2022/10/03 08:25:55;;;;;;;9.18;6.30;;;410.00;2355.20;;;;;;5053742;28;20024;-78
2022/10/03 08:28:49;;;;;;;8.05;5.00;;;410.20;2355.20;;;;;;5052400;28;20052;-77
2022/10/03 08:31:40;;;;;;;5.55;3.70;;;410.20;2355.20;;;;;;5052123;28;20596;-75
2022/10/03 08:34:37;;;;;;;8.25;4.45;;;410.30;2355.20;;;;;;5053805;28;20351;-74
2022/10/03 08:37:05;;;;;;;7.80;5.30;;;410.30;2355.20;;;;;;5052508;28;20068;-81
2022/10/03 08:39:31;;;;;;;13.00;7.72;;;410.30;2355.20;;;;;;5053402;28;20382;-77
2022/10/03 08:42:39;;;;;;;8.95;5.30;;;410.30;2355.20;;;;;;5052881;28;20025;-74
2022/10/03 08:45:20;;;;;;;5.30;4.28;;;410.30;2355.20;;;;;;5052135;28;20074;-74
2022/10/03 08:48:12;;;;;;;6.13;4.38;;;410.30;2355.20;;;;;;5053269;28;20075;-73
2022/10/03 08:51:12;;;;;;;9.07;4.68;;;410.50;2355.20;;;;;;5045316;28;20124;-73
2022/10/03 08:53:38;;;;;;;7.00;4.68;;;410.50;2355.20;;;;;;5051820;28;20033;-75
2022/10/03 08:56:23;;;;;;;5.53;4.45;;;410.50;2355.20;;;;;;5052086;28;20373;-76
2022/10/03 08:59:01;;;;;;;6.45;4.00;;;435.20;2355.20;;;;;;5053111;28;20029;-76
2022/10/03 09:01:49;;;;;;;4.55;3.53;;;435.30;2355.20;;;;;;5052088;28;20025;-75
2022/10/03 09:04:38;;;;;;;3.95;3.28;;;435.40;2355.20;;;;;;5052928;28;20025;-75
2022/10/03 09:07:12;;;;;;;4.65;3.65;;;435.50;2355.20;;;;;;5039567;28;20037;-73
2022/10/03 09:10:16;;;;;;;5.30;3.30;;;435.50;2355.20;;;;;;5052000;28;20025;-75
2022/10/03 09:13:10;;;;;;;4.40;2.75;;;435.60;2355.20;;;;;;5053233;28;20029;-76
2022/10/03 09:16:03;;;;;;;4.18;3.08;;;435.60;2355.20;;;;;;5052462;28;20044;-76
2022/10/03 09:18:51;;;;;;;4.60;3.45;;;435.50;2355.20;;;;;;5055723;28;20045;-76
2022/10/03 09:21:39;;;;;;;5.90;3.83;;;435.50;2355.20;;;;;;5056895;28;20029;-75
2022/10/03 09:24:05;;;;;;;5.80;4.40;;;435.40;2355.20;;;;;;5055950;28;20382;-76
2022/10/03 09:26:40;;;;;;;7.10;4.25;;;435.30;2355.20;;;;;;5055466;28;20025;-75
2022/10/03 09:29:33;;;;;;;6.97;4.20;;;435.40;2355.20;;;;;;5055658;28;20021;-75
2022/10/03 09:32:30;;;;;;;7.18;4.43;;;435.30;2355.20;;;;;;5055735;28;20028;-76
2022/10/03 09:35:13;;;;;;;7.63;4.80;;;435.40;2355.20;;;;;;5055373;28;20025;-76
2022/10/03 09:38:05;;;;;;;5.82;4.25;;;435.60;2355.20;;;;;;5055622;28;20029;-78
2022/10/03 09:40:52;;;;;;;5.47;4.50;;;435.70;2355.20;;;;;;5056936;28;20033;-78
2022/10/03 09:43:49;;;;;;;4.40;3.72;;;435.90;2355.20;;;;;;5055667;28;20033;-80
2022/10/03 09:46:26;;;;;;;6.68;4.22;;;460.80;2380.80;;;;;;5057076;28;20033;-77
2022/10/03 09:49:37;;;;;;;5.55;4.03;;;436.10;2355.20;;;;;;5055238;28;20031;-79
2022/10/03 09:52:08;;;;;;;5.45;3.88;;;436.10;2355.20;;;;;;5034944;28;20055;-77
2022/10/03 09:54:46;;;;;;;5.72;4.32;;;460.80;2380.80;;;;;;5055981;28;20382;-77
2022/10/03 09:57:37;;;;;;;7.13;4.20;;;460.90;2380.80;;;;;;5054947;28;20025;-77
2022/10/03 10:00:15;;;;;;;6.35;5.22;;;461.20;2380.80;;;;;;5055278;28;20025;-78
2022/10/03 10:03:11;;;;;;;5.88;5.28;;;461.20;2380.80;;;;;;5054916;28;20079;-79
2022/10/03 10:05:49;;;;;;;6.30;5.40;;;461.10;2380.80;;;;;;5055441;28;20029;-77
2022/10/03 10:08:48;;;;;;;8.40;6.25;;;461.10;2380.80;;;;;;5055209;28;20052;-77
2022/10/03 10:11:42;;;;;;;5.90;4.97;;;461.10;2380.80;;;;;;5056297;28;20470;-76
2022/10/03 10:14:17;;;;;;;6.55;5.18;;;461.00;2380.80;;;;;;5054601;28;20025;-77
2022/10/03 10:17:04;;;;;;;7.22;5.57;;;461.00;2380.80;;;;;;5054282;28;20425;-75
2022/10/03 10:19:52;;;;;;;7.03;6.00;;;460.90;2380.80;;;;;;5056013;28;20029;-77
2022/10/03 10:22:49;;;;;;;10.13;8.00;;;460.90;2380.80;;;;;;5056352;28;20029;-78
2022/10/03 10:25:41;;;;;;;6.90;5.55;;;460.90;2380.80;;;;;;5056040;28;20512;-78
2022/10/03 10:29:07;;;;;;;6.00;5.00;;;461.00;2380.80;;;;;;5053652;28;20021;-78
2022/10/03 10:32:06;;;;;;;5.90;4.50;;;461.40;2380.80;;;;;;5006084;28;20048;-80
2022/10/03 10:35:09;;;;;;;6.85;5.35;;;461.30;2380.80;;;;;;5032278;28;20022;-79
2022/10/03 10:38:02;;;;;;;6.07;4.90;;;461.20;2380.80;;;;;;5071166;28;20029;-79
2022/10/03 10:40:48;;;;;;;6.07;5.15;;;461.10;2380.80;;;;;;5054710;28;20044;-79
2022/10/03 10:43:35;;;;;;;5.20;4.32;;;461.00;2380.80;;;;;;5024666;28;20470;-79
2022/10/03 10:46:19;;;;;;;6.57;4.70;;;461.00;2380.80;;;;;;5054503;28;20052;-79
2022/10/03 10:49:28;;;;;;;7.45;4.57;;;460.90;2380.80;;;;;;5054424;28;20421;-78
2022/10/03 10:52:03;;;;;;;6.28;4.60;;;436.10;2355.20;;;;;;5054072;28;20043;-78
2022/10/03 10:55:02;;;;;;;5.57;4.72;;;436.10;2355.20;;;;;;5055474;28;20029;-80
2022/10/03 10:58:05;;;;;;;5.15;4.00;;;436.00;2355.20;;;;;;5053898;28;20117;-79
2022/10/03 11:01:19;;;;;;;6.20;4.93;;;435.90;2355.20;;;;;;5054181;28;20112;-78
2022/10/03 11:04:03;;;;;;;;;;;435.90;2355.20;;;;;;5001252;28;20030;-77
2022/10/03 11:06:47;;;;;;;6.82;4.90;;;;;;;;;;5055259;28;19909;-78
2022/10/03 11:09:13;;;;;;;10.45;7.03;;;;;;;;;;5055242;28;20029;-78
2022/10/03 11:11:58;;;;;;;15.88;12.25;;;461.40;2380.80;;;;;;5055164;28;20028;-78
2022/10/03 11:15:01;;;;;;;10.43;7.72;;;461.70;2380.80;;;;;;5053920;28;20057;-78
2022/10/03 11:17:27;;;;;;;;;;;;;;;;;;5053996;28;20053;-77
2022/10/03 11:20:35;;;;;;;4.75;3.95;;;487.10;2380.80;;;;;;5054839;28;19905;-81
2022/10/03 11:23:01;;;;;;;6.15;4.32;;;487.10;2380.80;;;;;;5053854;28;20028;-78
2022/10/03 11:25:42;;;;;;;5.93;4.30;;;486.70;2380.80;;;;;;5052992;28;20029;-80
2022/10/03 11:28:45;;;;;;;5.82;4.70;;;486.50;2380.80;;;;;;5053731;28;20032;-79
2022/10/03 11:31:29;;;;;;;7.47;4.53;;;461.70;2380.80;;;;;;5053460;28;20482;-77
2022/10/03 11:34:14;;;;;;;5.88;4.18;;;;;;;;;;5053382;28;20029;-78
2022/10/03 11:36:56;;;;;;;5.97;4.50;;;;;;;;;;5053568;28;20021;-77
2022/10/03 11:39:22;;;;;;;5.43;4.18;;;;;;;;;;5054176;28;20493;-77
2022/10/03 11:42:11;;;;;;;5.80;3.70;;;;;;;;;;5052945;28;20029;-79
2022/10/03 11:44:53;;;;;;;6.85;4.13;;;512.40;2380.80;;;;;;5023027;28;20060;-77
2022/10/03 11:47:25;;;;;;;5.60;4.20;;;;;;;;;;5031991;28;20063;-77
2022/10/03 11:49:51;;;;;;;5.45;3.90;;;;;;;;;;5033191;28;20029;-78
2022/10/03 11:52:33;;;;;;;5.20;3.97;;;487.10;2380.80;;;;;;5033369;28;20363;-79
2022/10/03 11:55:30;;;;;;;4.70;3.65;;;486.80;2380.80;;;;;;5034264;28;20033;-78
2022/10/03 11:58:19;;;;;;;4.82;2.90;;;486.50;2380.80;;;;;;5033428;28;20025;-79
2022/10/03 12:00:53;;;;;;;5.90;3.40;;;486.50;2380.80;;;;;;5045255;28;20124;-80
2022/10/03 12:03:25;;;;;;;9.65;5.30;;;;;;;;;;5041026;28;20088;-79
2022/10/03 12:05:51;;;;;;;;;;;;;;;;;;5041336;28;20020;-81
2022/10/03 12:11:41;;;;;;;6.28;4.05;;;512.80;2380.80;;;;;;5042742;28;20052;-81
2022/10/03 12:14:10;;;;;;;6.00;4.22;;;538.10;2355.20;;;;;;5040999;28;20021;-79
2022/10/03 12:17:13;;;;;;;14.48;6.95;;;538.20;2329.60;;;;;;5037246;28;20053;-81
2022/10/03 12:20:01;;;;;;;6.35;3.40;;;;;;;;;;5032938;28;20033;-79
2022/10/03 12:22:32;;;;;;;5.50;3.33;;;512.80;2278.40;;;;;;5032810;28;20021;-81
2022/10/03 12:25:20;;;;;;;5.83;3.60;;;512.70;2278.40;;;;;;5034274;28;20037;-80
2022/10/03 12:28:14;;;;;;;4.97;3.13;;;512.20;2304.00;;;;;;5032673;28;20532;-79
2022/10/03 12:31:18;;;;;;;3.85;2.50;;;512.00;2355.20;;;;;;5045905;28;20028;-83
2022/10/03 12:33:54;;;;;;;4.85;3.28;;;487.30;2329.60;;;;;;5052240;28;20222;-82
2022/10/03 12:36:23;;;;;;;4.43;3.08;;;;;;;;;;5051631;28;20021;-79
2022/10/03 12:38:55;;;;;;;8.05;3.38;;;512.20;2380.80;;;;;;5052464;28;20043;-80
2022/10/03 12:41:37;;;;;;;5.07;2.72;;;512.20;2304.00;;;;;;5052393;28;20082;-80
2022/10/03 12:44:41;;;;;;;4.40;2.90;;;512.40;2278.40;;;;;;5052316;28;20496;-82
2022/10/03 12:47:30;;;;;;;7.88;4.18;;;512.80;2252.80;;;;;;5052491;28;20075;-81
2022/10/03 12:50:06;;;;;;;4.55;3.00;;;;;;;;;;5052005;28;20488;-82
2022/10/03 12:52:38;;;;;;;4.75;2.58;;;;;;;;;;5051573;28;20028;-81
2022/10/03 12:55:25;;;;;;;10.77;4.88;;;;;;;;;;5052502;28;20033;-79
2022/10/03 12:58:17;;;;;;;6.45;3.15;;;512.60;2252.80;;;;;;5022015;28;20035;-79
2022/10/03 13:00:55;;;;;;;4.05;2.40;;;512.50;2252.80;;;;;;5048917;28;20037;-80
2022/10/03 13:03:59;;;;;;;4.85;2.58;;;512.10;2252.80;;;;;;5052330;28;20025;-80
2022/10/03 13:06:45;;;;;;;5.05;2.67;;;512.10;2252.80;;;;;;5052169;28;20029;-82
2022/10/03 13:10:02;;;;;;;6.15;2.50;;;538.10;2176.00;;;;;;5052383;28;20025;-81
2022/10/03 13:12:48;;;;;;;3.30;2.05;;;563.40;2176.00;;;;;;5026530;28;20041;-79
2022/10/03 13:15:32;;;;;;;3.90;2.00;;;;;;;;;;5052427;28;20448;-81
2022/10/03 13:18:17;;;;;;;4.30;2.10;;;;;;;;;;5051623;28;20140;-79
2022/10/03 13:20:51;;;;;;;26.60;20.50;;;;;;;;;;5052200;28;20033;-79
2022/10/03 13:23:42;;;;;;;24.92;17.42;;;589.70;2073.60;;;;;;5051607;28;20017;-81
2022/10/03 13:26:08;;;;;;;12.40;8.23;;;;;;;;;;5046933;28;20073;-81
2022/10/03 13:28:53;;;;;;;7.13;5.00;;;;;;;;;;5052145;28;20307;-80
2022/10/03 13:31:26;;;;;;;3.63;2.40;;;;;;;;;;5052213;28;20036;-84
2022/10/03 13:33:54;;;;;;;4.05;2.13;;;;;;;;;;5052314;28;20123;-82
2022/10/03 13:36:59;;;;;;;4.32;2.25;;;;;;;;;;5051982;28;20108;-78
2022/10/03 13:39:40;;;;;;;3.72;1.55;;;564.10;1920.00;;;;;;4994563;28;20029;-79
2022/10/03 13:42:36;;;;;;;5.82;2.08;;;563.90;1945.60;;;;;;5011383;28;20042;-79
2022/10/03 13:45:17;;;;;;;4.63;2.50;;;563.20;1996.80;;;;;;5038997;28;20033;-78
2022/10/03 13:47:47;;;;;;;4.55;1.77;;;538.40;1996.80;;;;;;5051809;28;20036;-82
2022/10/03 13:50:38;;;;;;;4.75;2.00;;;538.10;1996.80;;;;;;5052137;28;20048;-79
2022/10/03 13:53:27;;;;;;;4.95;2.28;;;537.80;2022.40;;;;;;5051696;28;20386;-79
2022/10/03 13:55:57;;;;;;;3.60;1.85;;;512.90;2022.40;;;;;;5051854;28;20049;-81
2022/10/03 13:58:25;;;;;;;7.10;2.67;;;512.60;2073.60;;;;;;5051827;28;20025;-79
2022/10/03 14:01:10;;;;;;;4.15;1.85;;;512.60;2099.20;;;;;;5051782;28;20059;-80
2022/10/03 14:04:08;;;;;;;4.10;2.30;;;512.30;2124.80;;;;;;5053635;28;20036;-78
2022/10/03 14:06:41;;;;;;;4.30;1.88;;;512.20;2124.80;;;;;;5054025;28;20076;-79
2022/10/03 14:09:38;;;;;;;4.07;2.05;;;512.00;2150.40;;;;;;5055452;28;20025;-78
2022/10/03 14:12:16;;;;;;;6.28;2.30;;;487.20;2176.00;;;;;;5055465;28;20039;-80